sensor_id;sensor_type;location;lat;lon;timestamp;P1;durP1;ratioP1;P2;durP2;ratioP2
20531;SDS011;10424;52.102;8.084;2022-10-17T00:01:28;5.95;;;3.30;;
20531;SDS011;10424;52.102;8.084;2022-10-17T00:03:56;3.75;;;3.10;;
20531;SDS011;10424;52.102;8.084;2022-10-17T00:06:24;7.78;;;3.60;;
20531;SDS011;10424;52.102;8.084;2022-10-17T00:08:51;5.38;;;3.30;;
20531;SDS011;10424;52.102;8.084;2022-10-17T00:11:19;5.65;;;3.17;;
20531;SDS011;10424;52.102;8.084;2022-10-17T00:13:47;4.43;;;3.20;;
20531;SDS011;10424;52.102;8.084;2022-10-17T00:16:17;4.93;;;3.28;;
20531;SDS011;10424;52.102;8.084;2022-10-17T00:18:49;6.10;;;3.13;;
20531;SDS011;10424;52.102;8.084;2022-10-17T00:21:18;5.85;;;3.42;;
20531;SDS011;10424;52.102;8.084;2022-10-17T00:23:46;6.47;;;4.07;;
20531;SDS011;10424;52.102;8.084;2022-10-17T00:26:14;8.27;;;3.85;;
20531;SDS011;10424;52.102;8.084;2022-10-17T00:28:41;7.22;;;3.85;;
20531;SDS011;10424;52.102;8.084;2022-10-17T00:31:08;9.48;;;4.32;;
20531;SDS011;10424;52.102;8.084;2022-10-17T00:33:36;9.05;;;3.92;;
20531;SDS011;10424;52.102;8.084;2022-10-17T00:36:04;5.50;;;4.03;;
20531;SDS011;10424;52.102;8.084;2022-10-17T00:38:33;7.47;;;4.07;;
20531;SDS011;10424;52.102;8.084;2022-10-17T00:41:01;5.18;;;4.35;;
20531;SDS011;10424;52.102;8.084;2022-10-17T00:43:28;7.65;;;4.30;;
20531;SDS011;10424;52.102;8.084;2022-10-17T00:45:55;5.05;;;4.40;;
20531;SDS011;10424;52.102;8.084;2022-10-17T00:48:23;7.35;;;4.05;;
20531;SDS011;10424;52.102;8.084;2022-10-17T00:50:51;6.78;;;5.20;;
20531;SDS011;10424;52.102;8.084;2022-10-17T00:53:18;5.53;;;4.70;;
20531;SDS011;10424;52.102;8.084;2022-10-17T00:55:48;6.90;;;4.32;;
20531;SDS011;10424;52.102;8.084;2022-10-17T00:58:16;5.25;;;4.47;;
20531;SDS011;10424;52.102;8.084;2022-10-17T01:00:44;6.78;;;5.10;;
20531;SDS011;10424;52.102;8.084;2022-10-17T01:03:12;7.05;;;4.80;;
20531;SDS011;10424;52.102;8.084;2022-10-17T01:05:39;10.30;;;5.07;;
20531;SDS011;10424;52.102;8.084;2022-10-17T01:08:07;6.90;;;5.25;;
20531;SDS011;10424;52.102;8.084;2022-10-17T01:10:38;8.77;;;5.20;;
20531;SDS011;10424;52.102;8.084;2022-10-17T01:13:09;12.75;;;5.63;;
20531;SDS011;10424;52.102;8.084;2022-10-17T01:15:42;8.75;;;5.28;;
20531;SDS011;10424;52.102;8.084;2022-10-17T01:18:12;9.05;;;5.88;;
20531;SDS011;10424;52.102;8.084;2022-10-17T01:23:49;8.82;;;5.70;;
20531;SDS011;10424;52.102;8.084;2022-10-17T01:26:22;7.65;;;5.97;;
20531;SDS011;10424;52.102;8.084;2022-10-17T01:29:13;7.97;;;5.68;;
20531;SDS011;10424;52.102;8.084;2022-10-17T01:31:47;9.20;;;6.30;;
20531;SDS011;10424;52.102;8.084;2022-10-17T01:34:17;8.80;;;5.95;;
20531;SDS011;10424;52.102;8.084;2022-10-17T01:36:52;7.72;;;5.68;;
20531;SDS011;10424;52.102;8.084;2022-10-17T01:39:23;6.93;;;6.00;;
20531;SDS011;10424;52.102;8.084;2022-10-17T01:41:55;8.13;;;6.13;;
20531;SDS011;10424;52.102;8.084;2022-10-17T01:44:26;9.00;;;6.82;;
20531;SDS011;10424;52.102;8.084;2022-10-17T01:46:58;8.70;;;6.78;;
20531;SDS011;10424;52.102;8.084;2022-10-17T01:49:26;9.43;;;6.63;;
20531;SDS011;10424;52.102;8.084;2022-10-17T01:51:55;11.25;;;6.90;;
20531;SDS011;10424;52.102;8.084;2022-10-17T01:54:24;9.40;;;6.63;;
20531;SDS011;10424;52.102;8.084;2022-10-17T01:56:54;10.75;;;6.97;;
20531;SDS011;10424;52.102;8.084;2022-10-17T01:59:23;10.68;;;7.00;;
20531;SDS011;10424;52.102;8.084;2022-10-17T02:01:52;12.38;;;7.35;;
20531;SDS011;10424;52.102;8.084;2022-10-17T02:04:21;12.82;;;6.50;;
20531;SDS011;10424;52.102;8.084;2022-10-17T02:06:49;12.50;;;7.35;;
20531;SDS011;10424;52.102;8.084;2022-10-17T02:09:17;10.52;;;6.88;;
20531;SDS011;10424;52.102;8.084;2022-10-17T02:11:49;10.48;;;7.53;;
20531;SDS011;10424;52.102;8.084;2022-10-17T02:14:19;9.52;;;6.97;;
20531;SDS011;10424;52.102;8.084;2022-10-17T02:16:50;9.52;;;7.30;;
20531;SDS011;10424;52.102;8.084;2022-10-17T02:19:26;10.77;;;7.43;;
20531;SDS011;10424;52.102;8.084;2022-10-17T02:22:00;11.63;;;7.18;;
20531;SDS011;10424;52.102;8.084;2022-10-17T02:24:31;12.43;;;7.38;;
20531;SDS011;10424;52.102;8.084;2022-10-17T02:27:03;9.95;;;8.15;;
20531;SDS011;10424;52.102;8.084;2022-10-17T02:29:33;10.50;;;7.28;;
20531;SDS011;10424;52.102;8.084;2022-10-17T02:32:02;10.77;;;7.68;;
20531;SDS011;10424;52.102;8.084;2022-10-17T02:34:33;11.88;;;7.80;;
20531;SDS011;10424;52.102;8.084;2022-10-17T02:37:03;11.00;;;7.97;;
20531;SDS011;10424;52.102;8.084;2022-10-17T02:39:31;13.32;;;8.15;;
20531;SDS011;10424;52.102;8.084;2022-10-17T02:41:59;14.10;;;8.75;;
20531;SDS011;10424;52.102;8.084;2022-10-17T02:44:37;15.45;;;8.30;;
20531;SDS011;10424;52.102;8.084;2022-10-17T02:47:07;13.88;;;8.55;;
20531;SDS011;10424;52.102;8.084;2022-10-17T02:49:38;12.77;;;8.20;;
20531;SDS011;10424;52.102;8.084;2022-10-17T02:52:08;13.30;;;7.82;;
20531;SDS011;10424;52.102;8.084;2022-10-17T02:54:37;14.68;;;8.98;;
20531;SDS011;10424;52.102;8.084;2022-10-17T02:57:07;11.60;;;7.90;;
20531;SDS011;10424;52.102;8.084;2022-10-17T02:59:36;13.00;;;8.50;;
20531;SDS011;10424;52.102;8.084;2022-10-17T03:02:05;12.95;;;8.80;;
20531;SDS011;10424;52.102;8.084;2022-10-17T03:04:33;12.65;;;8.27;;
20531;SDS011;10424;52.102;8.084;2022-10-17T03:07:01;16.20;;;8.02;;
20531;SDS011;10424;52.102;8.084;2022-10-17T03:09:29;12.38;;;8.25;;
20531;SDS011;10424;52.102;8.084;2022-10-17T03:11:56;12.73;;;8.15;;
20531;SDS011;10424;52.102;8.084;2022-10-17T03:14:23;11.85;;;8.50;;
20531;SDS011;10424;52.102;8.084;2022-10-17T03:16:50;15.80;;;8.13;;
20531;SDS011;10424;52.102;8.084;2022-10-17T03:19:18;10.80;;;7.80;;
20531;SDS011;10424;52.102;8.084;2022-10-17T03:21:45;12.60;;;8.00;;
20531;SDS011;10424;52.102;8.084;2022-10-17T03:24:14;11.10;;;7.85;;
20531;SDS011;10424;52.102;8.084;2022-10-17T03:26:41;11.35;;;8.43;;
20531;SDS011;10424;52.102;8.084;2022-10-17T03:29:08;11.63;;;8.27;;
20531;SDS011;10424;52.102;8.084;2022-10-17T03:31:36;13.95;;;8.30;;
20531;SDS011;10424;52.102;8.084;2022-10-17T03:34:03;11.88;;;7.57;;
20531;SDS011;10424;52.102;8.084;2022-10-17T03:36:30;11.30;;;7.93;;
20531;SDS011;10424;52.102;8.084;2022-10-17T03:38:57;10.52;;;7.88;;
20531;SDS011;10424;52.102;8.084;2022-10-17T03:41:26;12.23;;;7.85;;
20531;SDS011;10424;52.102;8.084;2022-10-17T03:43:53;10.68;;;7.85;;
20531;SDS011;10424;52.102;8.084;2022-10-17T03:46:21;10.93;;;8.20;;
20531;SDS011;10424;52.102;8.084;2022-10-17T03:48:48;12.40;;;8.35;;
20531;SDS011;10424;52.102;8.084;2022-10-17T03:51:15;10.27;;;8.02;;
20531;SDS011;10424;52.102;8.084;2022-10-17T03:53:42;13.35;;;7.82;;
20531;SDS011;10424;52.102;8.084;2022-10-17T03:56:11;12.90;;;7.88;;
20531;SDS011;10424;52.102;8.084;2022-10-17T03:58:40;12.43;;;8.00;;
20531;SDS011;10424;52.102;8.084;2022-10-17T04:01:08;9.95;;;7.72;;
20531;SDS011;10424;52.102;8.084;2022-10-17T04:03:36;13.13;;;7.70;;
20531;SDS011;10424;52.102;8.084;2022-10-17T04:06:03;11.98;;;7.65;;
20531;SDS011;10424;52.102;8.084;2022-10-17T04:08:31;11.82;;;7.68;;
20531;SDS011;10424;52.102;8.084;2022-10-17T04:10:59;11.82;;;8.00;;
20531;SDS011;10424;52.102;8.084;2022-10-17T04:13:26;11.65;;;7.65;;
20531;SDS011;10424;52.102;8.084;2022-10-17T04:15:55;11.57;;;8.15;;
20531;SDS011;10424;52.102;8.084;2022-10-17T04:18:23;12.65;;;7.65;;
20531;SDS011;10424;52.102;8.084;2022-10-17T04:20:50;18.38;;;7.72;;
20531;SDS011;10424;52.102;8.084;2022-10-17T04:23:18;10.32;;;7.63;;
20531;SDS011;10424;52.102;8.084;2022-10-17T04:25:45;12.85;;;7.82;;
20531;SDS011;10424;52.102;8.084;2022-10-17T04:28:12;13.45;;;7.57;;
20531;SDS011;10424;52.102;8.084;2022-10-17T04:30:39;12.85;;;7.63;;
20531;SDS011;10424;52.102;8.084;2022-10-17T04:33:08;12.45;;;7.63;;
20531;SDS011;10424;52.102;8.084;2022-10-17T04:35:35;12.00;;;8.00;;
20531;SDS011;10424;52.102;8.084;2022-10-17T04:38:03;11.57;;;7.50;;
20531;SDS011;10424;52.102;8.084;2022-10-17T04:40:30;12.15;;;7.60;;
20531;SDS011;10424;52.102;8.084;2022-10-17T04:42:57;10.32;;;7.38;;
20531;SDS011;10424;52.102;8.084;2022-10-17T04:45:25;11.32;;;8.27;;
20531;SDS011;10424;52.102;8.084;2022-10-17T04:47:52;11.98;;;8.00;;
20531;SDS011;10424;52.102;8.084;2022-10-17T04:50:20;16.45;;;7.03;;
20531;SDS011;10424;52.102;8.084;2022-10-17T04:52:48;12.95;;;8.25;;
20531;SDS011;10424;52.102;8.084;2022-10-17T04:55:15;15.45;;;7.88;;
20531;SDS011;10424;52.102;8.084;2022-10-17T04:57:42;13.20;;;7.10;;
20531;SDS011;10424;52.102;8.084;2022-10-17T05:00:10;10.80;;;7.55;;
20531;SDS011;10424;52.102;8.084;2022-10-17T05:02:37;14.07;;;7.30;;
20531;SDS011;10424;52.102;8.084;2022-10-17T05:05:05;13.27;;;7.32;;
20531;SDS011;10424;52.102;8.084;2022-10-17T05:07:33;17.70;;;7.65;;
20531;SDS011;10424;52.102;8.084;2022-10-17T05:10:01;10.27;;;7.13;;
20531;SDS011;10424;52.102;8.084;2022-10-17T05:12:28;11.23;;;7.47;;
20531;SDS011;10424;52.102;8.084;2022-10-17T05:14:55;10.20;;;7.60;;
20531;SDS011;10424;52.102;8.084;2022-10-17T05:17:23;9.82;;;7.05;;
20531;SDS011;10424;52.102;8.084;2022-10-17T05:19:50;11.35;;;7.47;;
20531;SDS011;10424;52.102;8.084;2022-10-17T05:22:17;12.48;;;7.35;;
20531;SDS011;10424;52.102;8.084;2022-10-17T05:24:46;13.20;;;7.38;;
20531;SDS011;10424;52.102;8.084;2022-10-17T05:27:13;10.13;;;7.15;;
20531;SDS011;10424;52.102;8.084;2022-10-17T05:29:40;10.15;;;7.70;;
20531;SDS011;10424;52.102;8.084;2022-10-17T05:32:08;14.05;;;7.70;;
20531;SDS011;10424;52.102;8.084;2022-10-17T05:34:35;12.23;;;7.70;;
20531;SDS011;10424;52.102;8.084;2022-10-17T05:37:02;11.63;;;7.40;;
20531;SDS011;10424;52.102;8.084;2022-10-17T05:39:29;10.93;;;7.35;;
20531;SDS011;10424;52.102;8.084;2022-10-17T05:41:58;14.73;;;7.88;;
20531;SDS011;10424;52.102;8.084;2022-10-17T05:44:26;16.80;;;7.93;;
20531;SDS011;10424;52.102;8.084;2022-10-17T05:46:53;14.95;;;7.65;;
20531;SDS011;10424;52.102;8.084;2022-10-17T05:49:21;12.07;;;7.43;;
20531;SDS011;10424;52.102;8.084;2022-10-17T05:51:48;10.98;;;7.80;;
20531;SDS011;10424;52.102;8.084;2022-10-17T05:54:15;12.55;;;8.13;;
20531;SDS011;10424;52.102;8.084;2022-10-17T05:56:42;13.13;;;7.43;;
20531;SDS011;10424;52.102;8.084;2022-10-17T05:59:11;11.02;;;7.40;;
20531;SDS011;10424;52.102;8.084;2022-10-17T06:01:38;11.48;;;7.35;;
20531;SDS011;10424;52.102;8.084;2022-10-17T06:04:06;12.98;;;7.22;;
20531;SDS011;10424;52.102;8.084;2022-10-17T06:06:34;12.50;;;8.00;;
20531;SDS011;10424;52.102;8.084;2022-10-17T06:09:02;10.05;;;7.20;;
20531;SDS011;10424;52.102;8.084;2022-10-17T06:11:29;11.30;;;7.70;;
20531;SDS011;10424;52.102;8.084;2022-10-17T06:13:56;11.40;;;7.40;;
20531;SDS011;10424;52.102;8.084;2022-10-17T06:16:25;10.15;;;7.25;;
20531;SDS011;10424;52.102;8.084;2022-10-17T06:18:52;10.07;;;7.18;;
20531;SDS011;10424;52.102;8.084;2022-10-17T06:21:21;13.32;;;7.68;;
20531;SDS011;10424;52.102;8.084;2022-10-17T06:23:48;13.25;;;7.38;;
20531;SDS011;10424;52.102;8.084;2022-10-17T06:26:16;12.25;;;7.78;;
20531;SDS011;10424;52.102;8.084;2022-10-17T06:28:43;12.65;;;7.82;;
20531;SDS011;10424;52.102;8.084;2022-10-17T06:31:12;10.18;;;7.13;;
20531;SDS011;10424;52.102;8.084;2022-10-17T06:33:41;10.90;;;7.55;;
20531;SDS011;10424;52.102;8.084;2022-10-17T06:36:09;10.73;;;7.50;;
20531;SDS011;10424;52.102;8.084;2022-10-17T06:38:37;10.55;;;7.43;;
20531;SDS011;10424;52.102;8.084;2022-10-17T06:41:05;9.45;;;7.32;;
20531;SDS011;10424;52.102;8.084;2022-10-17T06:43:32;10.35;;;6.70;;
20531;SDS011;10424;52.102;8.084;2022-10-17T06:46:00;12.23;;;6.78;;
20531;SDS011;10424;52.102;8.084;2022-10-17T06:48:27;10.10;;;7.05;;
20531;SDS011;10424;52.102;8.084;2022-10-17T06:50:58;10.32;;;6.90;;
20531;SDS011;10424;52.102;8.084;2022-10-17T06:53:26;11.50;;;6.82;;
20531;SDS011;10424;52.102;8.084;2022-10-17T06:55:53;10.20;;;6.63;;
20531;SDS011;10424;52.102;8.084;2022-10-17T06:58:25;11.45;;;7.22;;
20531;SDS011;10424;52.102;8.084;2022-10-17T07:00:56;11.88;;;6.75;;
20531;SDS011;10424;52.102;8.084;2022-10-17T07:03:24;12.05;;;6.72;;
20531;SDS011;10424;52.102;8.084;2022-10-17T07:05:51;10.05;;;6.35;;
20531;SDS011;10424;52.102;8.084;2022-10-17T07:08:20;10.05;;;6.70;;
20531;SDS011;10424;52.102;8.084;2022-10-17T07:10:48;12.10;;;6.60;;
20531;SDS011;10424;52.102;8.084;2022-10-17T07:13:16;11.10;;;6.43;;
20531;SDS011;10424;52.102;8.084;2022-10-17T07:15:43;12.50;;;6.63;;
20531;SDS011;10424;52.102;8.084;2022-10-17T07:18:11;8.18;;;6.43;;
20531;SDS011;10424;52.102;8.084;2022-10-17T07:20:38;8.63;;;6.25;;
20531;SDS011;10424;52.102;8.084;2022-10-17T07:23:06;9.25;;;6.35;;
20531;SDS011;10424;52.102;8.084;2022-10-17T07:25:35;9.82;;;6.10;;
20531;SDS011;10424;52.102;8.084;2022-10-17T07:28:02;9.75;;;6.22;;
20531;SDS011;10424;52.102;8.084;2022-10-17T07:30:29;7.35;;;5.85;;
20531;SDS011;10424;52.102;8.084;2022-10-17T07:32:57;8.35;;;5.97;;
20531;SDS011;10424;52.102;8.084;2022-10-17T07:35:24;10.45;;;6.13;;
20531;SDS011;10424;52.102;8.084;2022-10-17T07:37:51;8.55;;;5.85;;
20531;SDS011;10424;52.102;8.084;2022-10-17T07:40:18;11.75;;;6.25;;
20531;SDS011;10424;52.102;8.084;2022-10-17T07:42:47;9.63;;;5.68;;
20531;SDS011;10424;52.102;8.084;2022-10-17T07:45:15;11.63;;;6.38;;
20531;SDS011;10424;52.102;8.084;2022-10-17T07:47:42;9.27;;;5.78;;
20531;SDS011;10424;52.102;8.084;2022-10-17T07:50:10;10.88;;;6.00;;
20531;SDS011;10424;52.102;8.084;2022-10-17T07:52:37;9.68;;;5.80;;
20531;SDS011;10424;52.102;8.084;2022-10-17T07:55:07;10.90;;;6.82;;
20531;SDS011;10424;52.102;8.084;2022-10-17T07:57:34;8.63;;;6.03;;
20531;SDS011;10424;52.102;8.084;2022-10-17T08:00:03;10.60;;;5.88;;
20531;SDS011;10424;52.102;8.084;2022-10-17T08:02:31;9.13;;;5.90;;
20531;SDS011;10424;52.102;8.084;2022-10-17T08:04:58;14.13;;;6.10;;
20531;SDS011;10424;52.102;8.084;2022-10-17T08:07:25;11.23;;;5.90;;
20531;SDS011;10424;52.102;8.084;2022-10-17T08:09:52;15.95;;;6.28;;
20531;SDS011;10424;52.102;8.084;2022-10-17T08:12:20;10.25;;;5.45;;
20531;SDS011;10424;52.102;8.084;2022-10-17T08:14:48;9.77;;;6.05;;
20531;SDS011;10424;52.102;8.084;2022-10-17T08:17:17;15.40;;;9.15;;
20531;SDS011;10424;52.102;8.084;2022-10-17T08:19:44;12.35;;;6.18;;
20531;SDS011;10424;52.102;8.084;2022-10-17T08:22:11;9.98;;;5.47;;
20531;SDS011;10424;52.102;8.084;2022-10-17T08:24:38;9.43;;;5.47;;
20531;SDS011;10424;52.102;8.084;2022-10-17T08:27:06;8.82;;;5.07;;
20531;SDS011;10424;52.102;8.084;2022-10-17T08:29:37;10.35;;;5.13;;
20531;SDS011;10424;52.102;8.084;2022-10-17T08:32:04;6.85;;;4.80;;
20531;SDS011;10424;52.102;8.084;2022-10-17T08:34:34;7.18;;;4.85;;
20531;SDS011;10424;52.102;8.084;2022-10-17T08:37:02;7.88;;;4.28;;
20531;SDS011;10424;52.102;8.084;2022-10-17T08:39:29;6.45;;;4.32;;
20531;SDS011;10424;52.102;8.084;2022-10-17T08:42:00;11.77;;;4.28;;
20531;SDS011;10424;52.102;8.084;2022-10-17T08:44:37;6.93;;;4.22;;
20531;SDS011;10424;52.102;8.084;2022-10-17T08:47:08;6.75;;;4.38;;
20531;SDS011;10424;52.102;8.084;2022-10-17T08:49:40;7.10;;;4.45;;
20531;SDS011;10424;52.102;8.084;2022-10-17T08:52:13;26.30;;;10.25;;
20531;SDS011;10424;52.102;8.084;2022-10-17T08:54:42;7.47;;;4.63;;
20531;SDS011;10424;52.102;8.084;2022-10-17T08:57:10;6.70;;;4.60;;
20531;SDS011;10424;52.102;8.084;2022-10-17T08:59:39;8.82;;;4.75;;
20531;SDS011;10424;52.102;8.084;2022-10-17T09:02:23;8.65;;;4.68;;
20531;SDS011;10424;52.102;8.084;2022-10-17T09:04:59;8.48;;;4.40;;
20531;SDS011;10424;52.102;8.084;2022-10-17T09:07:33;9.43;;;4.65;;
20531;SDS011;10424;52.102;8.084;2022-10-17T09:10:06;8.93;;;4.45;;
20531;SDS011;10424;52.102;8.084;2022-10-17T09:12:38;10.68;;;4.50;;
20531;SDS011;10424;52.102;8.084;2022-10-17T09:15:17;7.43;;;4.30;;
20531;SDS011;10424;52.102;8.084;2022-10-17T09:17:50;8.50;;;4.65;;
20531;SDS011;10424;52.102;8.084;2022-10-17T09:20:19;8.10;;;4.10;;
20531;SDS011;10424;52.102;8.084;2022-10-17T09:22:49;6.22;;;4.13;;
20531;SDS011;10424;52.102;8.084;2022-10-17T09:25:18;8.90;;;4.25;;
20531;SDS011;10424;52.102;8.084;2022-10-17T09:27:46;6.80;;;4.28;;
20531;SDS011;10424;52.102;8.084;2022-10-17T09:30:19;7.95;;;4.10;;
20531;SDS011;10424;52.102;8.084;2022-10-17T09:32:47;7.47;;;4.05;;
20531;SDS011;10424;52.102;8.084;2022-10-17T09:35:14;8.05;;;4.10;;
20531;SDS011;10424;52.102;8.084;2022-10-17T09:37:43;5.53;;;3.90;;
20531;SDS011;10424;52.102;8.084;2022-10-17T09:40:11;6.13;;;4.03;;
20531;SDS011;10424;52.102;8.084;2022-10-17T09:42:41;39.45;;;15.98;;
20531;SDS011;10424;52.102;8.084;2022-10-17T09:45:13;8.07;;;4.10;;
20531;SDS011;10424;52.102;8.084;2022-10-17T09:47:44;10.68;;;3.78;;
20531;SDS011;10424;52.102;8.084;2022-10-17T09:50:15;10.77;;;5.28;;
20531;SDS011;10424;52.102;8.084;2022-10-17T09:52:44;9.15;;;4.30;;
20531;SDS011;10424;52.102;8.084;2022-10-17T09:55:15;5.68;;;3.60;;
20531;SDS011;10424;52.102;8.084;2022-10-17T09:57:54;6.57;;;3.88;;
20531;SDS011;10424;52.102;8.084;2022-10-17T10:00:22;5.68;;;3.65;;
20531;SDS011;10424;52.102;8.084;2022-10-17T10:02:49;7.07;;;4.00;;
20531;SDS011;10424;52.102;8.084;2022-10-17T10:05:17;8.07;;;3.40;;
20531;SDS011;10424;52.102;8.084;2022-10-17T10:07:59;6.65;;;3.63;;
20531;SDS011;10424;52.102;8.084;2022-10-17T10:10:27;5.40;;;3.50;;
20531;SDS011;10424;52.102;8.084;2022-10-17T10:13:02;6.18;;;3.55;;
20531;SDS011;10424;52.102;8.084;2022-10-17T10:15:31;6.82;;;3.55;;
20531;SDS011;10424;52.102;8.084;2022-10-17T10:17:59;5.85;;;3.40;;
20531;SDS011;10424;52.102;8.084;2022-10-17T10:20:27;6.55;;;4.00;;
20531;SDS011;10424;52.102;8.084;2022-10-17T10:25:51;5.57;;;3.70;;
20531;SDS011;10424;52.102;8.084;2022-10-17T10:28:18;5.93;;;3.47;;
20531;SDS011;10424;52.102;8.084;2022-10-17T10:30:46;6.75;;;3.55;;
20531;SDS011;10424;52.102;8.084;2022-10-17T10:33:14;5.40;;;3.90;;
20531;SDS011;10424;52.102;8.084;2022-10-17T10:35:41;7.25;;;3.35;;
20531;SDS011;10424;52.102;8.084;2022-10-17T10:38:09;6.03;;;3.40;;
20531;SDS011;10424;52.102;8.084;2022-10-17T10:40:37;10.25;;;3.55;;
20531;SDS011;10424;52.102;8.084;2022-10-17T10:43:06;6.95;;;3.55;;
20531;SDS011;10424;52.102;8.084;2022-10-17T10:45:39;7.57;;;3.55;;
20531;SDS011;10424;52.102;8.084;2022-10-17T10:48:13;6.43;;;3.35;;
20531;SDS011;10424;52.102;8.084;2022-10-17T10:50:44;8.80;;;3.75;;
20531;SDS011;10424;52.102;8.084;2022-10-17T10:53:25;5.50;;;3.40;;
20531;SDS011;10424;52.102;8.084;2022-10-17T10:55:57;8.85;;;3.85;;
20531;SDS011;10424;52.102;8.084;2022-10-17T10:58:30;6.65;;;3.85;;
20531;SDS011;10424;52.102;8.084;2022-10-17T11:01:00;8.60;;;3.83;;
20531;SDS011;10424;52.102;8.084;2022-10-17T11:03:30;7.45;;;3.42;;
20531;SDS011;10424;52.102;8.084;2022-10-17T11:06:01;7.95;;;3.92;;
20531;SDS011;10424;52.102;8.084;2022-10-17T11:08:33;7.30;;;3.58;;
20531;SDS011;10424;52.102;8.084;2022-10-17T11:11:05;11.48;;;4.00;;
20531;SDS011;10424;52.102;8.084;2022-10-17T11:13:40;9.35;;;3.88;;
20531;SDS011;10424;52.102;8.084;2022-10-17T11:16:13;9.18;;;3.70;;
20531;SDS011;10424;52.102;8.084;2022-10-17T11:18:43;6.40;;;3.72;;
20531;SDS011;10424;52.102;8.084;2022-10-17T11:21:12;7.50;;;3.78;;
20531;SDS011;10424;52.102;8.084;2022-10-17T11:23:42;6.95;;;3.55;;
20531;SDS011;10424;52.102;8.084;2022-10-17T11:26:12;6.30;;;3.67;;
20531;SDS011;10424;52.102;8.084;2022-10-17T11:28:41;7.13;;;3.97;;
20531;SDS011;10424;52.102;8.084;2022-10-17T11:31:09;5.53;;;3.90;;
20531;SDS011;10424;52.102;8.084;2022-10-17T11:33:40;7.20;;;3.92;;
20531;SDS011;10424;52.102;8.084;2022-10-17T11:36:09;6.55;;;3.50;;
20531;SDS011;10424;52.102;8.084;2022-10-17T11:38:38;9.55;;;4.13;;
20531;SDS011;10424;52.102;8.084;2022-10-17T11:41:07;10.95;;;4.13;;
20531;SDS011;10424;52.102;8.084;2022-10-17T11:43:37;9.65;;;4.50;;
20531;SDS011;10424;52.102;8.084;2022-10-17T11:46:11;8.48;;;4.57;;
20531;SDS011;10424;52.102;8.084;2022-10-17T11:48:40;8.65;;;4.72;;
20531;SDS011;10424;52.102;8.084;2022-10-17T11:51:10;8.77;;;4.75;;
20531;SDS011;10424;52.102;8.084;2022-10-17T11:53:43;12.05;;;5.10;;
20531;SDS011;10424;52.102;8.084;2022-10-17T11:56:12;8.98;;;4.82;;
20531;SDS011;10424;52.102;8.084;2022-10-17T11:58:42;10.10;;;4.80;;
20531;SDS011;10424;52.102;8.084;2022-10-17T12:01:14;10.07;;;4.57;;
20531;SDS011;10424;52.102;8.084;2022-10-17T12:03:47;11.18;;;4.35;;
20531;SDS011;10424;52.102;8.084;2022-10-17T12:06:20;12.60;;;5.20;;
20531;SDS011;10424;52.102;8.084;2022-10-17T12:08:52;11.32;;;5.28;;
20531;SDS011;10424;52.102;8.084;2022-10-17T12:11:26;10.45;;;5.57;;
20531;SDS011;10424;52.102;8.084;2022-10-17T12:13:58;9.18;;;6.35;;
20531;SDS011;10424;52.102;8.084;2022-10-17T12:22:05;12.55;;;7.57;;
20531;SDS011;10424;52.102;8.084;2022-10-17T12:24:43;8.63;;;6.15;;
20531;SDS011;10424;52.102;8.084;2022-10-17T12:27:22;13.07;;;6.78;;
20531;SDS011;10424;52.102;8.084;2022-10-17T12:29:49;7.78;;;5.78;;
20531;SDS011;10424;52.102;8.084;2022-10-17T12:32:24;10.15;;;6.05;;
20531;SDS011;10424;52.102;8.084;2022-10-17T12:34:51;10.90;;;6.18;;
20531;SDS011;10424;52.102;8.084;2022-10-17T12:40:02;10.15;;;5.85;;
20531;SDS011;10424;52.102;8.084;2022-10-17T12:42:31;10.23;;;5.55;;
20531;SDS011;10424;52.102;8.084;2022-10-17T12:44:58;12.35;;;5.47;;
20531;SDS011;10424;52.102;8.084;2022-10-17T12:47:26;9.40;;;5.70;;
20531;SDS011;10424;52.102;8.084;2022-10-17T12:49:54;8.82;;;5.63;;
20531;SDS011;10424;52.102;8.084;2022-10-17T12:52:22;10.93;;;5.70;;
20531;SDS011;10424;52.102;8.084;2022-10-17T12:54:54;11.65;;;5.45;;
20531;SDS011;10424;52.102;8.084;2022-10-17T12:57:26;10.07;;;5.10;;
20531;SDS011;10424;52.102;8.084;2022-10-17T12:59:56;12.27;;;4.97;;
20531;SDS011;10424;52.102;8.084;2022-10-17T13:02:24;9.32;;;5.07;;
20531;SDS011;10424;52.102;8.084;2022-10-17T13:04:54;8.73;;;4.80;;
20531;SDS011;10424;52.102;8.084;2022-10-17T13:07:23;10.27;;;4.90;;
20531;SDS011;10424;52.102;8.084;2022-10-17T13:09:51;8.85;;;4.82;;
20531;SDS011;10424;52.102;8.084;2022-10-17T13:12:19;7.72;;;4.47;;
20531;SDS011;10424;52.102;8.084;2022-10-17T13:14:50;10.40;;;4.85;;
20531;SDS011;10424;52.102;8.084;2022-10-17T13:17:22;7.28;;;4.80;;
20531;SDS011;10424;52.102;8.084;2022-10-17T13:19:49;9.50;;;4.75;;
20531;SDS011;10424;52.102;8.084;2022-10-17T13:22:17;10.07;;;5.20;;
20531;SDS011;10424;52.102;8.084;2022-10-17T13:24:45;10.07;;;5.18;;
20531;SDS011;10424;52.102;8.084;2022-10-17T13:27:25;7.55;;;4.75;;
20531;SDS011;10424;52.102;8.084;2022-10-17T13:29:55;10.07;;;5.38;;
20531;SDS011;10424;52.102;8.084;2022-10-17T13:32:23;10.23;;;5.25;;
20531;SDS011;10424;52.102;8.084;2022-10-17T13:35:03;8.57;;;5.00;;
20531;SDS011;10424;52.102;8.084;2022-10-17T13:37:31;9.95;;;4.95;;
20531;SDS011;10424;52.102;8.084;2022-10-17T13:39:59;14.90;;;4.90;;
20531;SDS011;10424;52.102;8.084;2022-10-17T13:42:27;9.23;;;4.65;;
20531;SDS011;10424;52.102;8.084;2022-10-17T13:44:56;5.97;;;4.35;;
20531;SDS011;10424;52.102;8.084;2022-10-17T13:47:26;9.95;;;4.50;;
20531;SDS011;10424;52.102;8.084;2022-10-17T13:49:53;10.80;;;4.85;;
20531;SDS011;10424;52.102;8.084;2022-10-17T13:52:21;11.05;;;4.82;;
20531;SDS011;10424;52.102;8.084;2022-10-17T13:54:49;8.98;;;4.65;;
20531;SDS011;10424;52.102;8.084;2022-10-17T13:57:19;9.40;;;5.10;;
20531;SDS011;10424;52.102;8.084;2022-10-17T13:59:48;10.85;;;4.97;;
20531;SDS011;10424;52.102;8.084;2022-10-17T14:02:18;9.95;;;4.30;;
20531;SDS011;10424;52.102;8.084;2022-10-17T14:04:45;6.75;;;4.32;;
20531;SDS011;10424;52.102;8.084;2022-10-17T14:07:18;12.15;;;5.10;;
20531;SDS011;10424;52.102;8.084;2022-10-17T14:09:47;13.93;;;4.93;;
20531;SDS011;10424;52.102;8.084;2022-10-17T14:12:15;6.63;;;4.68;;
20531;SDS011;10424;52.102;8.084;2022-10-17T14:14:45;9.45;;;4.80;;
20531;SDS011;10424;52.102;8.084;2022-10-17T14:17:13;11.27;;;4.68;;
20531;SDS011;10424;52.102;8.084;2022-10-17T14:19:42;12.88;;;5.30;;
20531;SDS011;10424;52.102;8.084;2022-10-17T14:22:13;12.25;;;4.90;;
20531;SDS011;10424;52.102;8.084;2022-10-17T14:24:41;10.48;;;5.35;;
20531;SDS011;10424;52.102;8.084;2022-10-17T14:27:23;10.75;;;5.50;;
20531;SDS011;10424;52.102;8.084;2022-10-17T14:29:52;11.48;;;6.00;;
20531;SDS011;10424;52.102;8.084;2022-10-17T14:32:19;10.10;;;5.45;;
20531;SDS011;10424;52.102;8.084;2022-10-17T14:34:52;10.13;;;5.38;;
20531;SDS011;10424;52.102;8.084;2022-10-17T14:37:23;10.43;;;5.93;;
20531;SDS011;10424;52.102;8.084;2022-10-17T14:39:53;9.63;;;5.35;;
20531;SDS011;10424;52.102;8.084;2022-10-17T14:42:21;12.75;;;6.18;;
20531;SDS011;10424;52.102;8.084;2022-10-17T14:44:48;10.95;;;4.65;;
20531;SDS011;10424;52.102;8.084;2022-10-17T14:47:17;10.70;;;5.03;;
20531;SDS011;10424;52.102;8.084;2022-10-17T14:49:48;11.45;;;4.90;;
20531;SDS011;10424;52.102;8.084;2022-10-17T14:52:25;12.77;;;4.80;;
20531;SDS011;10424;52.102;8.084;2022-10-17T14:54:52;12.02;;;4.75;;
20531;SDS011;10424;52.102;8.084;2022-10-17T14:57:22;13.40;;;4.68;;
20531;SDS011;10424;52.102;8.084;2022-10-17T14:59:50;8.13;;;4.57;;
20531;SDS011;10424;52.102;8.084;2022-10-17T15:02:18;5.45;;;4.45;;
20531;SDS011;10424;52.102;8.084;2022-10-17T15:04:46;5.40;;;4.07;;
20531;SDS011;10424;52.102;8.084;2022-10-17T15:07:13;7.43;;;4.60;;